Annville, Pennsylvania
Current Conditions -  °F | °C
As of 5:02 PM on Monday 22 Dec 2014 (Local Time) from KMUI Reporting Station
Overcast Overcast  
Wind Chill:   Ceiling: 2100
Heat Index:   Visibility: 10mi
Dew Point: -1°   Wind: 1mph
Humidity: 75%   Direction: 30°NNE
Pressure: 30.18"   Gusts: NA
Location:  40.33°N, 76.51°W
Report Text: KMUI 222202Z AUTO 03001KT 10SM BKN021 OVC036 03/M01 A3018 RMK AO2 CIG 021V036 BKN V FEW
Loading
Personal Weather Stations






























Interactive Weather Map New forecast layout! Learn more

10-Day Weather Forecast

Advertisements
Track Severe Weather on mobile